sensor_id;sensor_type;location;lat;lon;timestamp;pressure;altitude;pressure_sealevel;temperature
31528;BMP280;10206;48.012;10.030;2023-10-31T00:00:40;93369.63;;;12.51
31528;BMP280;10206;48.012;10.030;2023-10-31T00:03:06;93375.28;;;12.55
31528;BMP280;10206;48.012;10.030;2023-10-31T00:05:32;93386.84;;;12.39
31528;BMP280;10206;48.012;10.030;2023-10-31T00:07:58;93386.28;;;12.70
31528;BMP280;10206;48.012;10.030;2023-10-31T00:10:24;93385.06;;;12.60
31528;BMP280;10206;48.012;10.030;2023-10-31T00:12:50;93381.34;;;12.82
31528;BMP280;10206;48.012;10.030;2023-10-31T00:15:16;93377.41;;;12.85
31528;BMP280;10206;48.012;10.030;2023-10-31T00:17:42;93373.81;;;12.67
31528;BMP280;10206;48.012;10.030;2023-10-31T00:20:09;93365.63;;;12.67
31528;BMP280;10206;48.012;10.030;2023-10-31T00:22:35;93365.47;;;12.79
31528;BMP280;10206;48.012;10.030;2023-10-31T00:25:01;93365.47;;;12.79
31528;BMP280;10206;48.012;10.030;2023-10-31T00:27:27;93361.31;;;12.78
31528;BMP280;10206;48.012;10.030;2023-10-31T00:29:53;93362.84;;;12.52
31528;BMP280;10206;48.012;10.030;2023-10-31T00:32:19;93361.22;;;12.76
31528;BMP280;10206;48.012;10.030;2023-10-31T00:34:45;93352.31;;;12.75
31528;BMP280;10206;48.012;10.030;2023-10-31T00:37:11;93350.09;;;12.72
31528;BMP280;10206;48.012;10.030;2023-10-31T00:39:37;93346.72;;;12.73
31528;BMP280;10206;48.012;10.030;2023-10-31T00:42:04;93356.19;;;12.70
31528;BMP280;10206;48.012;10.030;2023-10-31T00:44:30;93339.06;;;12.70
31528;BMP280;10206;48.012;10.030;2023-10-31T00:46:56;93350.81;;;12.72
31528;BMP280;10206;48.012;10.030;2023-10-31T00:49:22;93358.31;;;12.72
31528;BMP280;10206;48.012;10.030;2023-10-31T00:51:48;93352.69;;;12.54
31528;BMP280;10206;48.012;10.030;2023-10-31T00:54:14;93352.41;;;12.77
31528;BMP280;10206;48.012;10.030;2023-10-31T00:56:40;93365.63;;;12.67
31528;BMP280;10206;48.012;10.030;2023-10-31T00:59:06;93365.47;;;12.49
31528;BMP280;10206;48.012;10.030;2023-10-31T01:01:32;93375.19;;;12.39
31528;BMP280;10206;48.012;10.030;2023-10-31T01:03:59;93378.06;;;12.41
31528;BMP280;10206;48.012;10.030;2023-10-31T01:06:25;93391.84;;;12.72
31528;BMP280;10206;48.012;10.030;2023-10-31T01:08:51;93396.41;;;12.68
31528;BMP280;10206;48.012;10.030;2023-10-31T01:11:17;93405.53;;;12.72
31528;BMP280;10206;48.012;10.030;2023-10-31T01:13:43;93408.09;;;12.55
31528;BMP280;10206;48.012;10.030;2023-10-31T01:16:09;93420.50;;;12.71
31528;BMP280;10206;48.012;10.030;2023-10-31T01:18:35;93415.44;;;12.79
31528;BMP280;10206;48.012;10.030;2023-10-31T01:21:01;93419.09;;;12.70
31528;BMP280;10206;48.012;10.030;2023-10-31T01:23:27;93417.72;;;12.85
31528;BMP280;10206;48.012;10.030;2023-10-31T01:25:53;93419.75;;;12.84
31528;BMP280;10206;48.012;10.030;2023-10-31T01:28:19;93421.84;;;12.70
31528;BMP280;10206;48.012;10.030;2023-10-31T01:30:46;93417.38;;;12.77
31528;BMP280;10206;48.012;10.030;2023-10-31T01:33:12;93425.88;;;12.69
31528;BMP280;10206;48.012;10.030;2023-10-31T01:35:38;93426.38;;;12.79
31528;BMP280;10206;48.012;10.030;2023-10-31T01:38:04;93427.81;;;12.67
31528;BMP280;10206;48.012;10.030;2023-10-31T01:40:30;93426.53;;;12.54
31528;BMP280;10206;48.012;10.030;2023-10-31T01:42:56;93429.06;;;12.64
31528;BMP280;10206;48.012;10.030;2023-10-31T01:45:22;93426.69;;;12.72
31528;BMP280;10206;48.012;10.030;2023-10-31T01:47:49;93424.97;;;12.35
31528;BMP280;10206;48.012;10.030;2023-10-31T01:50:17;93424.19;;;12.48
31528;BMP280;10206;48.012;10.030;2023-10-31T01:52:44;93422.78;;;12.61
31528;BMP280;10206;48.012;10.030;2023-10-31T01:55:11;93414.09;;;12.51
31528;BMP280;10206;48.012;10.030;2023-10-31T01:57:37;93414.88;;;12.54
31528;BMP280;10206;48.012;10.030;2023-10-31T02:00:05;93409.84;;;12.48
31528;BMP280;10206;48.012;10.030;2023-10-31T02:02:33;93422.38;;;12.53
31528;BMP280;10206;48.012;10.030;2023-10-31T02:05:00;93415.88;;;12.60
31528;BMP280;10206;48.012;10.030;2023-10-31T02:07:27;93408.28;;;12.16
31528;BMP280;10206;48.012;10.030;2023-10-31T02:09:53;93415.47;;;12.66
31528;BMP280;10206;48.012;10.030;2023-10-31T02:12:35;93416.13;;;12.80
31528;BMP280;10206;48.012;10.030;2023-10-31T02:15:02;93421.41;;;12.33
31528;BMP280;10206;48.012;10.030;2023-10-31T02:17:28;93416.03;;;12.35
31528;BMP280;10206;48.012;10.030;2023-10-31T02:19:55;93421.31;;;12.31
31528;BMP280;10206;48.012;10.030;2023-10-31T02:22:22;93427.03;;;12.64
31528;BMP280;10206;48.012;10.030;2023-10-31T02:24:48;93433.31;;;12.53
31528;BMP280;10206;48.012;10.030;2023-10-31T02:27:14;93444.47;;;12.43
31528;BMP280;10206;48.012;10.030;2023-10-31T02:29:40;93444.97;;;12.40
31528;BMP280;10206;48.012;10.030;2023-10-31T02:32:07;93457.25;;;12.53
31528;BMP280;10206;48.012;10.030;2023-10-31T02:34:33;93464.53;;;12.48
31528;BMP280;10206;48.012;10.030;2023-10-31T02:37:00;93463.47;;;12.69
31528;BMP280;10206;48.012;10.030;2023-10-31T02:39:26;93469.19;;;12.59
31528;BMP280;10206;48.012;10.030;2023-10-31T02:41:52;93462.19;;;12.56
31528;BMP280;10206;48.012;10.030;2023-10-31T02:44:18;93456.06;;;12.28
31528;BMP280;10206;48.012;10.030;2023-10-31T02:46:44;93469.53;;;12.38
31528;BMP280;10206;48.012;10.030;2023-10-31T02:49:11;93465.56;;;12.27
31528;BMP280;10206;48.012;10.030;2023-10-31T02:51:37;93461.69;;;12.46
31528;BMP280;10206;48.012;10.030;2023-10-31T02:54:03;93456.72;;;12.42
31528;BMP280;10206;48.012;10.030;2023-10-31T02:56:29;93470.81;;;12.51
31528;BMP280;10206;48.012;10.030;2023-10-31T02:58:55;93470.91;;;12.39
31528;BMP280;10206;48.012;10.030;2023-10-31T03:01:21;93467.88;;;12.46
31528;BMP280;10206;48.012;10.030;2023-10-31T03:03:47;93481.75;;;12.64
31528;BMP280;10206;48.012;10.030;2023-10-31T03:06:13;93470.38;;;12.56
31528;BMP280;10206;48.012;10.030;2023-10-31T03:08:39;93472.84;;;12.50
31528;BMP280;10206;48.012;10.030;2023-10-31T03:11:06;93464.91;;;12.56
31528;BMP280;10206;48.012;10.030;2023-10-31T03:13:32;93467.66;;;12.42
31528;BMP280;10206;48.012;10.030;2023-10-31T03:15:58;93471.31;;;12.47
31528;BMP280;10206;48.012;10.030;2023-10-31T03:18:24;93484.56;;;12.39
31528;BMP280;10206;48.012;10.030;2023-10-31T03:20:50;93479.59;;;12.49
31528;BMP280;10206;48.012;10.030;2023-10-31T03:23:16;93478.00;;;12.44
31528;BMP280;10206;48.012;10.030;2023-10-31T03:25:42;93475.47;;;12.48
31528;BMP280;10206;48.012;10.030;2023-10-31T03:28:18;93483.25;;;12.40
31528;BMP280;10206;48.012;10.030;2023-10-31T03:30:47;93475.34;;;12.46
31528;BMP280;10206;48.012;10.030;2023-10-31T03:33:13;93469.31;;;12.20
31528;BMP280;10206;48.012;10.030;2023-10-31T03:35:40;93476.00;;;12.44
31528;BMP280;10206;48.012;10.030;2023-10-31T03:38:06;93477.44;;;12.32
31528;BMP280;10206;48.012;10.030;2023-10-31T03:40:32;93485.72;;;12.34
31528;BMP280;10206;48.012;10.030;2023-10-31T03:42:58;93493.50;;;12.26
31528;BMP280;10206;48.012;10.030;2023-10-31T03:45:24;93496.16;;;12.24
31528;BMP280;10206;48.012;10.030;2023-10-31T03:47:50;93487.31;;;11.98
31528;BMP280;10206;48.012;10.030;2023-10-31T03:50:16;93498.25;;;11.98
31528;BMP280;10206;48.012;10.030;2023-10-31T03:52:42;93495.22;;;12.19
31528;BMP280;10206;48.012;10.030;2023-10-31T03:55:09;93496.34;;;12.14
31528;BMP280;10206;48.012;10.030;2023-10-31T03:57:35;93514.47;;;12.21
31528;BMP280;10206;48.012;10.030;2023-10-31T04:00:01;93509.28;;;12.14
31528;BMP280;10206;48.012;10.030;2023-10-31T04:02:30;93509.13;;;12.10
31528;BMP280;10206;48.012;10.030;2023-10-31T04:04:56;93518.50;;;12.20
31528;BMP280;10206;48.012;10.030;2023-10-31T04:07:22;93512.03;;;12.14
31528;BMP280;10206;48.012;10.030;2023-10-31T04:09:48;93517.50;;;12.14
31528;BMP280;10206;48.012;10.030;2023-10-31T04:12:14;93508.09;;;12.03
31528;BMP280;10206;48.012;10.030;2023-10-31T04:14:40;93509.19;;;12.25
31528;BMP280;10206;48.012;10.030;2023-10-31T04:17:06;93503.34;;;12.31
31528;BMP280;10206;48.012;10.030;2023-10-31T04:19:32;93503.41;;;12.06
31528;BMP280;10206;48.012;10.030;2023-10-31T04:21:58;93507.38;;;12.16
31528;BMP280;10206;48.012;10.030;2023-10-31T04:24:25;93512.63;;;12.39
31528;BMP280;10206;48.012;10.030;2023-10-31T04:26:51;93512.44;;;12.08
31528;BMP280;10206;48.012;10.030;2023-10-31T04:29:17;93513.34;;;12.26
31528;BMP280;10206;48.012;10.030;2023-10-31T04:31:43;93506.53;;;12.00
31528;BMP280;10206;48.012;10.030;2023-10-31T04:34:09;93514.03;;;12.00
31528;BMP280;10206;48.012;10.030;2023-10-31T04:36:35;93511.84;;;11.96
31528;BMP280;10206;48.012;10.030;2023-10-31T04:39:01;93513.75;;;12.07
31528;BMP280;10206;48.012;10.030;2023-10-31T04:41:27;93508.41;;;12.09
31528;BMP280;10206;48.012;10.030;2023-10-31T04:43:54;93523.84;;;12.05
31528;BMP280;10206;48.012;10.030;2023-10-31T04:46:20;93532.34;;;11.97
31528;BMP280;10206;48.012;10.030;2023-10-31T04:48:46;93532.88;;;12.21
31528;BMP280;10206;48.012;10.030;2023-10-31T04:51:12;93522.47;;;12.17
31528;BMP280;10206;48.012;10.030;2023-10-31T04:53:39;93523.66;;;12.14
31528;BMP280;10206;48.012;10.030;2023-10-31T04:56:11;93509.19;;;12.25
31528;BMP280;10206;48.012;10.030;2023-10-31T04:58:37;93519.81;;;12.06
31528;BMP280;10206;48.012;10.030;2023-10-31T05:01:07;93523.84;;;12.05
31528;BMP280;10206;48.012;10.030;2023-10-31T05:03:33;93525.09;;;12.02
31528;BMP280;10206;48.012;10.030;2023-10-31T05:05:59;93527.53;;;12.09
31528;BMP280;10206;48.012;10.030;2023-10-31T05:08:25;93530.97;;;12.10
31528;BMP280;10206;48.012;10.030;2023-10-31T05:10:51;93536.00;;;12.02
31528;BMP280;10206;48.012;10.030;2023-10-31T05:13:18;93533.59;;;12.08
31528;BMP280;10206;48.012;10.030;2023-10-31T05:15:44;93533.59;;;12.21
31528;BMP280;10206;48.012;10.030;2023-10-31T05:18:10;93541.69;;;12.06
31528;BMP280;10206;48.012;10.030;2023-10-31T05:20:36;93538.06;;;12.15
31528;BMP280;10206;48.012;10.030;2023-10-31T05:23:02;93540.34;;;11.93
31528;BMP280;10206;48.012;10.030;2023-10-31T05:25:28;93542.19;;;12.02
31528;BMP280;10206;48.012;10.030;2023-10-31T05:27:55;93537.22;;;11.99
31528;BMP280;10206;48.012;10.030;2023-10-31T05:30:21;93542.78;;;12.01
31528;BMP280;10206;48.012;10.030;2023-10-31T05:32:47;93547.22;;;11.94
31528;BMP280;10206;48.012;10.030;2023-10-31T05:35:13;93551.19;;;11.66
31528;BMP280;10206;48.012;10.030;2023-10-31T05:37:40;93563.81;;;11.98
31528;BMP280;10206;48.012;10.030;2023-10-31T05:40:06;93564.34;;;11.69
31528;BMP280;10206;48.012;10.030;2023-10-31T05:42:32;93570.66;;;12.11
31528;BMP280;10206;48.012;10.030;2023-10-31T05:44:59;93576.16;;;11.86
31528;BMP280;10206;48.012;10.030;2023-10-31T05:47:25;93581.72;;;11.88
31528;BMP280;10206;48.012;10.030;2023-10-31T05:49:52;93587.09;;;11.60
31528;BMP280;10206;48.012;10.030;2023-10-31T05:52:18;93591.94;;;11.87
31528;BMP280;10206;48.012;10.030;2023-10-31T05:54:44;93607.78;;;11.77
31528;BMP280;10206;48.012;10.030;2023-10-31T05:57:10;93604.50;;;11.92
31528;BMP280;10206;48.012;10.030;2023-10-31T05:59:36;93608.53;;;11.91
31528;BMP280;10206;48.012;10.030;2023-10-31T06:02:02;93619.88;;;11.60
31528;BMP280;10206;48.012;10.030;2023-10-31T06:04:28;93617.72;;;11.59
31528;BMP280;10206;48.012;10.030;2023-10-31T06:06:54;93627.41;;;11.73
31528;BMP280;10206;48.012;10.030;2023-10-31T06:09:20;93623.00;;;11.68
31528;BMP280;10206;48.012;10.030;2023-10-31T06:11:46;93631.00;;;11.64
31528;BMP280;10206;48.012;10.030;2023-10-31T06:14:13;93634.38;;;11.51
31528;BMP280;10206;48.012;10.030;2023-10-31T06:16:43;93639.59;;;11.47
31528;BMP280;10206;48.012;10.030;2023-10-31T06:19:10;93646.94;;;11.56
31528;BMP280;10206;48.012;10.030;2023-10-31T06:21:36;93643.47;;;11.67
31528;BMP280;10206;48.012;10.030;2023-10-31T06:24:04;93650.16;;;11.53
31528;BMP280;10206;48.012;10.030;2023-10-31T06:26:30;93652.47;;;11.70
31528;BMP280;10206;48.012;10.030;2023-10-31T06:28:56;93654.31;;;11.54
31528;BMP280;10206;48.012;10.030;2023-10-31T06:31:22;93657.28;;;11.46
31528;BMP280;10206;48.012;10.030;2023-10-31T06:33:49;93662.34;;;11.38
31528;BMP280;10206;48.012;10.030;2023-10-31T06:36:15;93661.69;;;11.51
31528;BMP280;10206;48.012;10.030;2023-10-31T06:38:41;93660.97;;;11.51
31528;BMP280;10206;48.012;10.030;2023-10-31T06:41:07;93674.63;;;11.51
31528;BMP280;10206;48.012;10.030;2023-10-31T06:43:33;93674.34;;;11.58
31528;BMP280;10206;48.012;10.030;2023-10-31T06:46:00;93678.06;;;11.51
31528;BMP280;10206;48.012;10.030;2023-10-31T06:48:28;93681.38;;;11.50
31528;BMP280;10206;48.012;10.030;2023-10-31T06:50:54;93676.84;;;11.66
31528;BMP280;10206;48.012;10.030;2023-10-31T06:53:20;93687.25;;;11.69
31528;BMP280;10206;48.012;10.030;2023-10-31T06:55:46;93686.59;;;11.57
31528;BMP280;10206;48.012;10.030;2023-10-31T06:58:13;93691.34;;;11.57
31528;BMP280;10206;48.012;10.030;2023-10-31T07:00:39;93705.72;;;11.57
31528;BMP280;10206;48.012;10.030;2023-10-31T07:03:05;93704.16;;;11.66
31528;BMP280;10206;48.012;10.030;2023-10-31T07:05:35;93705.66;;;11.81
31528;BMP280;10206;48.012;10.030;2023-10-31T07:08:02;93708.63;;;11.73
31528;BMP280;10206;48.012;10.030;2023-10-31T07:10:29;93711.94;;;11.71
31528;BMP280;10206;48.012;10.030;2023-10-31T07:12:55;93705.94;;;11.61
31528;BMP280;10206;48.012;10.030;2023-10-31T07:15:21;93712.19;;;11.76
31528;BMP280;10206;48.012;10.030;2023-10-31T07:17:48;93721.72;;;12.00
31528;BMP280;10206;48.012;10.030;2023-10-31T07:20:14;93720.69;;;11.93
31528;BMP280;10206;48.012;10.030;2023-10-31T07:22:40;93723.28;;;11.91
31528;BMP280;10206;48.012;10.030;2023-10-31T07:25:07;93724.56;;;12.02
31528;BMP280;10206;48.012;10.030;2023-10-31T07:27:33;93729.38;;;11.90
31528;BMP280;10206;48.012;10.030;2023-10-31T07:29:59;93722.63;;;11.79
31528;BMP280;10206;48.012;10.030;2023-10-31T07:32:26;93727.78;;;11.98
31528;BMP280;10206;48.012;10.030;2023-10-31T07:34:52;93724.78;;;11.81
31528;BMP280;10206;48.012;10.030;2023-10-31T07:37:18;93727.22;;;11.88
31528;BMP280;10206;48.012;10.030;2023-10-31T07:39:44;93726.97;;;11.96
31528;BMP280;10206;48.012;10.030;2023-10-31T07:42:11;93733.22;;;12.10
31528;BMP280;10206;48.012;10.030;2023-10-31T07:44:37;93733.97;;;11.99
31528;BMP280;10206;48.012;10.030;2023-10-31T07:47:03;93735.09;;;12.07
31528;BMP280;10206;48.012;10.030;2023-10-31T07:49:29;93738.00;;;12.23
31528;BMP280;10206;48.012;10.030;2023-10-31T07:51:55;93735.56;;;12.15
31528;BMP280;10206;48.012;10.030;2023-10-31T07:54:21;93732.53;;;12.23
31528;BMP280;10206;48.012;10.030;2023-10-31T07:56:48;93727.16;;;12.11
31528;BMP280;10206;48.012;10.030;2023-10-31T07:59:14;93728.97;;;12.20
31528;BMP280;10206;48.012;10.030;2023-10-31T08:01:40;93731.06;;;12.33
31528;BMP280;10206;48.012;10.030;2023-10-31T08:04:06;93726.94;;;12.46
31528;BMP280;10206;48.012;10.030;2023-10-31T08:06:32;93728.81;;;12.30
31528;BMP280;10206;48.012;10.030;2023-10-31T08:08:58;93723.16;;;12.39
31528;BMP280;10206;48.012;10.030;2023-10-31T08:11:24;93735.97;;;12.48
31528;BMP280;10206;48.012;10.030;2023-10-31T08:13:51;93738.03;;;12.62
31528;BMP280;10206;48.012;10.030;2023-10-31T08:16:18;93728.75;;;12.80
31528;BMP280;10206;48.012;10.030;2023-10-31T08:18:45;93735.72;;;12.70
31528;BMP280;10206;48.012;10.030;2023-10-31T08:21:12;93737.06;;;12.82
31528;BMP280;10206;48.012;10.030;2023-10-31T08:23:38;93739.31;;;12.86
31528;BMP280;10206;48.012;10.030;2023-10-31T08:26:04;93738.31;;;13.06
31528;BMP280;10206;48.012;10.030;2023-10-31T08:28:31;93734.94;;;12.94
31528;BMP280;10206;48.012;10.030;2023-10-31T08:30:57;93736.78;;;12.90
31528;BMP280;10206;48.012;10.030;2023-10-31T08:33:23;93740.16;;;13.15
31528;BMP280;10206;48.012;10.030;2023-10-31T08:35:50;93735.97;;;13.55
31528;BMP280;10206;48.012;10.030;2023-10-31T08:38:17;93727.22;;;13.59
31528;BMP280;10206;48.012;10.030;2023-10-31T08:40:43;93726.03;;;13.48
31528;BMP280;10206;48.012;10.030;2023-10-31T08:43:10;93727.03;;;13.00
31528;BMP280;10206;48.012;10.030;2023-10-31T08:45:36;93726.28;;;13.25
31528;BMP280;10206;48.012;10.030;2023-10-31T08:48:03;93735.66;;;13.49
31528;BMP280;10206;48.012;10.030;2023-10-31T08:50:29;93730.91;;;13.50
31528;BMP280;10206;48.012;10.030;2023-10-31T08:52:55;93731.31;;;13.31
31528;BMP280;10206;48.012;10.030;2023-10-31T08:55:21;93728.88;;;13.50
31528;BMP280;10206;48.012;10.030;2023-10-31T08:57:47;93729.78;;;13.55
31528;BMP280;10206;48.012;10.030;2023-10-31T09:00:13;93739.91;;;13.66
31528;BMP280;10206;48.012;10.030;2023-10-31T09:02:40;93742.06;;;13.96
31528;BMP280;10206;48.012;10.030;2023-10-31T09:05:06;93756.44;;;14.11
31528;BMP280;10206;48.012;10.030;2023-10-31T09:07:32;93747.91;;;14.34
31528;BMP280;10206;48.012;10.030;2023-10-31T09:09:58;93752.69;;;14.33
31528;BMP280;10206;48.012;10.030;2023-10-31T09:12:24;93752.88;;;14.37
31528;BMP280;10206;48.012;10.030;2023-10-31T09:14:50;93756.06;;;14.32
31528;BMP280;10206;48.012;10.030;2023-10-31T09:17:16;93760.88;;;14.62
31528;BMP280;10206;48.012;10.030;2023-10-31T09:19:43;93760.34;;;14.50
31528;BMP280;10206;48.012;10.030;2023-10-31T09:22:09;93771.53;;;14.85
31528;BMP280;10206;48.012;10.030;2023-10-31T09:24:35;93767.44;;;15.02
31528;BMP280;10206;48.012;10.030;2023-10-31T09:27:01;93766.38;;;14.94
31528;BMP280;10206;48.012;10.030;2023-10-31T09:29:27;93772.44;;;14.45
31528;BMP280;10206;48.012;10.030;2023-10-31T09:31:53;93779.03;;;14.69
31528;BMP280;10206;48.012;10.030;2023-10-31T09:34:19;93772.88;;;14.40
31528;BMP280;10206;48.012;10.030;2023-10-31T09:36:46;93786.56;;;14.53
31528;BMP280;10206;48.012;10.030;2023-10-31T09:39:12;93786.56;;;14.53
31528;BMP280;10206;48.012;10.030;2023-10-31T09:41:38;93797.72;;;14.57
31528;BMP280;10206;48.012;10.030;2023-10-31T09:44:04;93797.53;;;14.84
31528;BMP280;10206;48.012;10.030;2023-10-31T09:46:30;93802.53;;;15.04
31528;BMP280;10206;48.012;10.030;2023-10-31T09:48:57;93804.47;;;14.70
31528;BMP280;10206;48.012;10.030;2023-10-31T09:51:23;93808.38;;;14.96
31528;BMP280;10206;48.012;10.030;2023-10-31T09:53:50;93803.56;;;14.81
31528;BMP280;10206;48.012;10.030;2023-10-31T09:56:19;93804.28;;;14.37
31528;BMP280;10206;48.012;10.030;2023-10-31T09:58:46;93809.69;;;14.64
31528;BMP280;10206;48.012;10.030;2023-10-31T10:01:12;93810.31;;;14.94
31528;BMP280;10206;48.012;10.030;2023-10-31T10:03:41;93812.91;;;15.05
31528;BMP280;10206;48.012;10.030;2023-10-31T10:06:08;93819.19;;;14.92
31528;BMP280;10206;48.012;10.030;2023-10-31T10:08:37;93818.72;;;15.13
31528;BMP280;10206;48.012;10.030;2023-10-31T10:11:05;93815.34;;;15.30
31528;BMP280;10206;48.012;10.030;2023-10-31T10:13:31;93816.25;;;15.35
31528;BMP280;10206;48.012;10.030;2023-10-31T10:15:57;93807.09;;;15.46
31528;BMP280;10206;48.012;10.030;2023-10-31T10:18:31;93816.34;;;15.21
31528;BMP280;10206;48.012;10.030;2023-10-31T10:21:00;93817.22;;;14.95
31528;BMP280;10206;48.012;10.030;2023-10-31T10:23:27;93814.19;;;15.35
31528;BMP280;10206;48.012;10.030;2023-10-31T10:25:54;93823.06;;;15.18
31528;BMP280;10206;48.012;10.030;2023-10-31T10:28:20;93813.50;;;15.04
31528;BMP280;10206;48.012;10.030;2023-10-31T10:30:50;93822.31;;;15.16
31528;BMP280;10206;48.012;10.030;2023-10-31T10:33:17;93828.28;;;14.97
31528;BMP280;10206;48.012;10.030;2023-10-31T10:35:44;93824.59;;;15.06
31528;BMP280;10206;48.012;10.030;2023-10-31T10:38:16;93828.72;;;14.91
31528;BMP280;10206;48.012;10.030;2023-10-31T10:40:47;93828.72;;;14.75
31528;BMP280;10206;48.012;10.030;2023-10-31T10:43:25;93835.66;;;14.92
31528;BMP280;10206;48.012;10.030;2023-10-31T10:45:56;93839.72;;;15.07
31528;BMP280;10206;48.012;10.030;2023-10-31T10:48:23;93831.16;;;14.99
31528;BMP280;10206;48.012;10.030;2023-10-31T10:51:15;93837.31;;;14.83
31528;BMP280;10206;48.012;10.030;2023-10-31T10:53:49;93835.97;;;14.84
31528;BMP280;10206;48.012;10.030;2023-10-31T10:56:26;93835.78;;;14.65
31528;BMP280;10206;48.012;10.030;2023-10-31T10:59:01;93843.44;;;14.82
31528;BMP280;10206;48.012;10.030;2023-10-31T11:01:33;93842.84;;;14.25
31528;BMP280;10206;48.012;10.030;2023-10-31T11:04:01;93839.63;;;14.73
31528;BMP280;10206;48.012;10.030;2023-10-31T11:06:28;93842.97;;;14.72
31528;BMP280;10206;48.012;10.030;2023-10-31T11:08:56;93847.00;;;14.55
31528;BMP280;10206;48.012;10.030;2023-10-31T11:11:23;93848.25;;;14.68
31528;BMP280;10206;48.012;10.030;2023-10-31T11:13:51;93849.09;;;14.41
31528;BMP280;10206;48.012;10.030;2023-10-31T11:16:26;93845.25;;;14.77
31528;BMP280;10206;48.012;10.030;2023-10-31T11:18:55;93836.91;;;15.05
31528;BMP280;10206;48.012;10.030;2023-10-31T11:21:23;93836.38;;;15.08
31528;BMP280;10206;48.012;10.030;2023-10-31T11:23:58;93842.41;;;15.05
31528;BMP280;10206;48.012;10.030;2023-10-31T11:26:27;93840.59;;;14.96
31528;BMP280;10206;48.012;10.030;2023-10-31T11:29:03;93841.88;;;14.93
31528;BMP280;10206;48.012;10.030;2023-10-31T11:31:30;93833.22;;;14.84
31528;BMP280;10206;48.012;10.030;2023-10-31T11:33:56;93841.88;;;14.93
31528;BMP280;10206;48.012;10.030;2023-10-31T11:36:22;93832.31;;;14.64
31528;BMP280;10206;48.012;10.030;2023-10-31T11:38:49;93847.25;;;14.32
31528;BMP280;10206;48.012;10.030;2023-10-31T11:41:15;93848.94;;;14.24
31528;BMP280;10206;48.012;10.030;2023-10-31T11:46:23;93851.59;;;14.96
31528;BMP280;10206;48.012;10.030;2023-10-31T11:48:55;93857.19;;;15.13
31528;BMP280;10206;48.012;10.030;2023-10-31T11:51:26;93857.56;;;15.06
31528;BMP280;10206;48.012;10.030;2023-10-31T11:53:52;93861.91;;;15.11
31528;BMP280;10206;48.012;10.030;2023-10-31T11:56:20;93866.59;;;15.08
31528;BMP280;10206;48.012;10.030;2023-10-31T11:59:01;93875.38;;;15.20
31528;BMP280;10206;48.012;10.030;2023-10-31T12:01:28;93876.53;;;15.00
31528;BMP280;10206;48.012;10.030;2023-10-31T12:03:54;93869.97;;;15.22
31528;BMP280;10206;48.012;10.030;2023-10-31T12:06:20;93870.66;;;14.62
31528;BMP280;10206;48.012;10.030;2023-10-31T12:08:48;93884.81;;;14.86
31528;BMP280;10206;48.012;10.030;2023-10-31T12:11:19;93884.00;;;14.54
31528;BMP280;10206;48.012;10.030;2023-10-31T12:14:02;93887.81;;;14.47
31528;BMP280;10206;48.012;10.030;2023-10-31T12:16:33;93886.81;;;14.27
31528;BMP280;10206;48.012;10.030;2023-10-31T12:19:04;93884.50;;;14.22
31528;BMP280;10206;48.012;10.030;2023-10-31T12:24:11;93892.88;;;14.39
31528;BMP280;10206;48.012;10.030;2023-10-31T12:26:38;93888.06;;;14.11
31528;BMP280;10206;48.012;10.030;2023-10-31T12:29:08;93881.25;;;14.54
31528;BMP280;10206;48.012;10.030;2023-10-31T12:31:35;93877.00;;;13.95
31528;BMP280;10206;48.012;10.030;2023-10-31T12:34:07;93883.47;;;14.58
31528;BMP280;10206;48.012;10.030;2023-10-31T12:36:36;93885.19;;;14.65
31528;BMP280;10206;48.012;10.030;2023-10-31T12:39:04;93878.41;;;14.52
31528;BMP280;10206;48.012;10.030;2023-10-31T12:41:30;93878.63;;;14.72
31528;BMP280;10206;48.012;10.030;2023-10-31T12:43:57;93877.91;;;14.71
31528;BMP280;10206;48.012;10.030;2023-10-31T12:46:28;93877.22;;;14.71
31528;BMP280;10206;48.012;10.030;2023-10-31T12:48:58;93879.91;;;14.84
31528;BMP280;10206;48.012;10.030;2023-10-31T12:51:24;93878.41;;;14.81
31528;BMP280;10206;48.012;10.030;2023-10-31T12:53:54;93883.22;;;14.97
31528;BMP280;10206;48.012;10.030;2023-10-31T12:57:07;93881.88;;;14.82
31528;BMP280;10206;48.012;10.030;2023-10-31T12:59:35;93877.56;;;14.63
31528;BMP280;10206;48.012;10.030;2023-10-31T13:02:05;93878.44;;;14.97
31528;BMP280;10206;48.012;10.030;2023-10-31T13:04:32;93874.38;;;15.29
31528;BMP280;10206;48.012;10.030;2023-10-31T13:07:01;93877.94;;;15.16
31528;BMP280;10206;48.012;10.030;2023-10-31T13:09:38;93877.56;;;15.24
31528;BMP280;10206;48.012;10.030;2023-10-31T13:12:09;93886.19;;;15.47
31528;BMP280;10206;48.012;10.030;2023-10-31T13:14:37;93880.84;;;15.20
31528;BMP280;10206;48.012;10.030;2023-10-31T13:17:05;93883.28;;;15.28
31528;BMP280;10206;48.012;10.030;2023-10-31T13:19:31;93880.84;;;15.36
31528;BMP280;10206;48.012;10.030;2023-10-31T13:21:57;93884.41;;;15.38
31528;BMP280;10206;48.012;10.030;2023-10-31T13:24:23;93879.28;;;15.31
31528;BMP280;10206;48.012;10.030;2023-10-31T13:26:49;93890.00;;;15.25
31528;BMP280;10206;48.012;10.030;2023-10-31T13:29:21;93890.13;;;14.98
31528;BMP280;10206;48.012;10.030;2023-10-31T13:31:47;93893.41;;;15.10
31528;BMP280;10206;48.012;10.030;2023-10-31T13:34:13;93896.88;;;15.26
31528;BMP280;10206;48.012;10.030;2023-10-31T13:36:39;93899.28;;;15.18
31528;BMP280;10206;48.012;10.030;2023-10-31T13:39:05;93897.41;;;15.07
31528;BMP280;10206;48.012;10.030;2023-10-31T13:41:32;93900.88;;;15.23
31528;BMP280;10206;48.012;10.030;2023-10-31T13:43:58;93904.59;;;15.29
31528;BMP280;10206;48.012;10.030;2023-10-31T13:46:24;93903.00;;;15.09
31528;BMP280;10206;48.012;10.030;2023-10-31T13:48:51;93904.00;;;15.31
31528;BMP280;10206;48.012;10.030;2023-10-31T13:51:17;93901.34;;;15.33
31528;BMP280;10206;48.012;10.030;2023-10-31T13:53:43;93906.19;;;15.19
31528;BMP280;10206;48.012;10.030;2023-10-31T13:56:09;93908.00;;;15.28
31528;BMP280;10206;48.012;10.030;2023-10-31T13:58:36;93902.22;;;15.53
31528;BMP280;10206;48.012;10.030;2023-10-31T14:01:02;93906.13;;;15.32